sensor_id;sensor_type;location;lat;lon;timestamp;temperature;humidity
15574;DHT22;7888;46.748;8.102;2023-03-11T00:00:36;10.00;50.90
15574;DHT22;7888;46.748;8.102;2023-03-11T00:03:06;10.00;51.10
15574;DHT22;7888;46.748;8.102;2023-03-11T00:05:35;10.00;51.00
15574;DHT22;7888;46.748;8.102;2023-03-11T00:08:04;10.00;51.20
15574;DHT22;7888;46.748;8.102;2023-03-11T00:10:33;10.00;51.00
15574;DHT22;7888;46.748;8.102;2023-03-11T00:13:03;9.90;51.20
15574;DHT22;7888;46.748;8.102;2023-03-11T00:15:30;9.90;51.10
15574;DHT22;7888;46.748;8.102;2023-03-11T00:17:56;9.90;51.20
15574;DHT22;7888;46.748;8.102;2023-03-11T00:20:29;9.90;51.10
15574;DHT22;7888;46.748;8.102;2023-03-11T00:22:57;9.90;51.10
15574;DHT22;7888;46.748;8.102;2023-03-11T00:25:27;9.80;51.10
15574;DHT22;7888;46.748;8.102;2023-03-11T00:27:55;9.80;51.40
15574;DHT22;7888;46.748;8.102;2023-03-11T00:30:21;9.80;51.30
15574;DHT22;7888;46.748;8.102;2023-03-11T00:32:53;9.80;51.20
15574;DHT22;7888;46.748;8.102;2023-03-11T00:35:27;9.80;51.30
15574;DHT22;7888;46.748;8.102;2023-03-11T00:38:00;9.80;51.60
15574;DHT22;7888;46.748;8.102;2023-03-11T00:40:29;9.80;51.30
15574;DHT22;7888;46.748;8.102;2023-03-11T00:42:57;9.80;51.30
15574;DHT22;7888;46.748;8.102;2023-03-11T00:45:23;9.80;51.30
15574;DHT22;7888;46.748;8.102;2023-03-11T00:47:51;9.80;51.30
15574;DHT22;7888;46.748;8.102;2023-03-11T00:50:22;9.80;51.30
15574;DHT22;7888;46.748;8.102;2023-03-11T00:52:50;9.80;51.60
15574;DHT22;7888;46.748;8.102;2023-03-11T00:55:25;9.80;51.40
15574;DHT22;7888;46.748;8.102;2023-03-11T00:58:00;9.80;51.70
15574;DHT22;7888;46.748;8.102;2023-03-11T01:00:29;9.70;51.50
15574;DHT22;7888;46.748;8.102;2023-03-11T01:02:58;9.80;51.40
15574;DHT22;7888;46.748;8.102;2023-03-11T01:05:29;9.80;51.40
15574;DHT22;7888;46.748;8.102;2023-03-11T01:07:57;9.80;51.50
15574;DHT22;7888;46.748;8.102;2023-03-11T01:10:24;9.80;51.30
15574;DHT22;7888;46.748;8.102;2023-03-11T01:12:51;9.80;51.40
15574;DHT22;7888;46.748;8.102;2023-03-11T01:15:20;9.80;51.40
15574;DHT22;7888;46.748;8.102;2023-03-11T01:17:48;9.80;51.50
15574;DHT22;7888;46.748;8.102;2023-03-11T01:20:14;9.80;51.40
15574;DHT22;7888;46.748;8.102;2023-03-11T01:22:41;9.80;52.00
15574;DHT22;7888;46.748;8.102;2023-03-11T01:25:10;9.80;51.50
15574;DHT22;7888;46.748;8.102;2023-03-11T01:27:38;9.80;52.30
15574;DHT22;7888;46.748;8.102;2023-03-11T01:30:05;9.80;51.60
15574;DHT22;7888;46.748;8.102;2023-03-11T01:32:31;9.80;51.50
15574;DHT22;7888;46.748;8.102;2023-03-11T01:34:57;9.80;51.50
15574;DHT22;7888;46.748;8.102;2023-03-11T01:37:23;9.80;51.50
15574;DHT22;7888;46.748;8.102;2023-03-11T01:39:48;9.80;51.50
15574;DHT22;7888;46.748;8.102;2023-03-11T01:42:14;9.80;51.50
15574;DHT22;7888;46.748;8.102;2023-03-11T01:44:40;9.80;51.50
15574;DHT22;7888;46.748;8.102;2023-03-11T01:49:34;9.80;51.70
15574;DHT22;7888;46.748;8.102;2023-03-11T01:52:03;9.80;51.50
15574;DHT22;7888;46.748;8.102;2023-03-11T01:54:37;9.80;51.50
15574;DHT22;7888;46.748;8.102;2023-03-11T01:57:07;9.80;51.60
15574;DHT22;7888;46.748;8.102;2023-03-11T01:59:39;9.80;51.40
15574;DHT22;7888;46.748;8.102;2023-03-11T02:02:34;9.90;51.60
15574;DHT22;7888;46.748;8.102;2023-03-11T02:05:04;9.80;51.70
15574;DHT22;7888;46.748;8.102;2023-03-11T02:07:31;9.90;51.30
15574;DHT22;7888;46.748;8.102;2023-03-11T02:09:57;9.90;51.40
15574;DHT22;7888;46.748;8.102;2023-03-11T02:12:23;9.90;51.30
15574;DHT22;7888;46.748;8.102;2023-03-11T02:14:50;9.90;51.30
15574;DHT22;7888;46.748;8.102;2023-03-11T02:17:19;9.80;51.40
15574;DHT22;7888;46.748;8.102;2023-03-11T02:22:43;9.90;51.60
15574;DHT22;7888;46.748;8.102;2023-03-11T02:27:46;9.90;51.30
15574;DHT22;7888;46.748;8.102;2023-03-11T02:30:16;9.90;51.40
15574;DHT22;7888;46.748;8.102;2023-03-11T02:32:45;9.90;51.30
15574;DHT22;7888;46.748;8.102;2023-03-11T02:35:13;9.90;51.40
15574;DHT22;7888;46.748;8.102;2023-03-11T02:37:48;9.90;51.50
15574;DHT22;7888;46.748;8.102;2023-03-11T02:40:34;9.90;51.80
15574;DHT22;7888;46.748;8.102;2023-03-11T02:43:10;9.90;51.90
15574;DHT22;7888;46.748;8.102;2023-03-11T02:45:40;9.90;51.60
15574;DHT22;7888;46.748;8.102;2023-03-11T02:48:10;9.90;51.50
15574;DHT22;7888;46.748;8.102;2023-03-11T02:50:39;9.90;51.50
15574;DHT22;7888;46.748;8.102;2023-03-11T02:53:06;9.80;51.50
15574;DHT22;7888;46.748;8.102;2023-03-11T02:55:32;9.80;51.40
15574;DHT22;7888;46.748;8.102;2023-03-11T02:57:58;9.80;51.40
15574;DHT22;7888;46.748;8.102;2023-03-11T03:00:24;9.80;51.50
15574;DHT22;7888;46.748;8.102;2023-03-11T03:02:50;9.80;51.50
15574;DHT22;7888;46.748;8.102;2023-03-11T03:05:17;9.80;51.60
15574;DHT22;7888;46.748;8.102;2023-03-11T03:07:49;9.80;51.70
15574;DHT22;7888;46.748;8.102;2023-03-11T03:10:15;9.70;51.80
15574;DHT22;7888;46.748;8.102;2023-03-11T03:12:42;9.70;51.80
15574;DHT22;7888;46.748;8.102;2023-03-11T03:15:09;9.70;51.90
15574;DHT22;7888;46.748;8.102;2023-03-11T03:17:36;9.70;52.00
15574;DHT22;7888;46.748;8.102;2023-03-11T03:20:03;9.70;52.00
15574;DHT22;7888;46.748;8.102;2023-03-11T03:22:33;9.70;52.00
15574;DHT22;7888;46.748;8.102;2023-03-11T03:24:58;9.70;52.20
15574;DHT22;7888;46.748;8.102;2023-03-11T03:27:24;9.70;52.30
15574;DHT22;7888;46.748;8.102;2023-03-11T03:29:50;9.60;52.10
15574;DHT22;7888;46.748;8.102;2023-03-11T03:32:16;9.60;52.00
15574;DHT22;7888;46.748;8.102;2023-03-11T03:34:41;9.60;51.90
15574;DHT22;7888;46.748;8.102;2023-03-11T03:37:07;9.50;51.80
15574;DHT22;7888;46.748;8.102;2023-03-11T03:39:33;9.50;52.00
15574;DHT22;7888;46.748;8.102;2023-03-11T03:41:59;9.40;52.10
15574;DHT22;7888;46.748;8.102;2023-03-11T03:44:24;9.40;52.20
15574;DHT22;7888;46.748;8.102;2023-03-11T03:46:50;9.40;52.10
15574;DHT22;7888;46.748;8.102;2023-03-11T03:49:16;9.30;52.00
15574;DHT22;7888;46.748;8.102;2023-03-11T03:51:42;9.20;51.80
15574;DHT22;7888;46.748;8.102;2023-03-11T03:54:08;9.10;51.70
15574;DHT22;7888;46.748;8.102;2023-03-11T03:56:33;9.10;51.90
15574;DHT22;7888;46.748;8.102;2023-03-11T03:58:59;9.00;52.00
15574;DHT22;7888;46.748;8.102;2023-03-11T04:01:25;9.00;52.20
15574;DHT22;7888;46.748;8.102;2023-03-11T04:03:51;8.90;52.90
15574;DHT22;7888;46.748;8.102;2023-03-11T04:06:22;8.90;52.30
15574;DHT22;7888;46.748;8.102;2023-03-11T04:08:53;8.90;52.70
15574;DHT22;7888;46.748;8.102;2023-03-11T04:11:19;8.80;52.60
15574;DHT22;7888;46.748;8.102;2023-03-11T04:13:46;8.90;52.40
15574;DHT22;7888;46.748;8.102;2023-03-11T04:16:22;8.80;52.30
15574;DHT22;7888;46.748;8.102;2023-03-11T04:18:49;8.80;52.40
15574;DHT22;7888;46.748;8.102;2023-03-11T04:21:15;8.80;52.00
15574;DHT22;7888;46.748;8.102;2023-03-11T04:23:41;8.70;51.90
15574;DHT22;7888;46.748;8.102;2023-03-11T04:26:06;8.70;51.90
15574;DHT22;7888;46.748;8.102;2023-03-11T04:28:32;8.60;51.90
15574;DHT22;7888;46.748;8.102;2023-03-11T04:30:58;8.60;51.90
15574;DHT22;7888;46.748;8.102;2023-03-11T04:33:24;8.50;52.00
15574;DHT22;7888;46.748;8.102;2023-03-11T04:35:50;8.50;52.00
15574;DHT22;7888;46.748;8.102;2023-03-11T04:38:15;8.50;52.10
15574;DHT22;7888;46.748;8.102;2023-03-11T04:40:41;8.50;52.10
15574;DHT22;7888;46.748;8.102;2023-03-11T04:43:07;8.40;52.00
15574;DHT22;7888;46.748;8.102;2023-03-11T04:45:33;8.40;52.10
15574;DHT22;7888;46.748;8.102;2023-03-11T04:48:01;8.40;52.10
15574;DHT22;7888;46.748;8.102;2023-03-11T04:50:26;8.30;52.00
15574;DHT22;7888;46.748;8.102;2023-03-11T04:52:52;8.30;52.00
15574;DHT22;7888;46.748;8.102;2023-03-11T04:55:18;8.30;52.00
15574;DHT22;7888;46.748;8.102;2023-03-11T04:57:44;8.30;52.00
15574;DHT22;7888;46.748;8.102;2023-03-11T05:00:13;8.30;52.00
15574;DHT22;7888;46.748;8.102;2023-03-11T05:02:40;8.30;52.00
15574;DHT22;7888;46.748;8.102;2023-03-11T05:05:08;8.20;51.70
15574;DHT22;7888;46.748;8.102;2023-03-11T05:07:35;8.20;51.80
15574;DHT22;7888;46.748;8.102;2023-03-11T05:10:02;8.20;51.80
15574;DHT22;7888;46.748;8.102;2023-03-11T05:12:29;8.10;51.90
15574;DHT22;7888;46.748;8.102;2023-03-11T05:14:55;8.10;51.80
15574;DHT22;7888;46.748;8.102;2023-03-11T05:17:20;8.10;51.90
15574;DHT22;7888;46.748;8.102;2023-03-11T05:19:46;8.00;51.80
15574;DHT22;7888;46.748;8.102;2023-03-11T05:22:13;8.00;51.90
15574;DHT22;7888;46.748;8.102;2023-03-11T05:24:39;8.00;51.90
15574;DHT22;7888;46.748;8.102;2023-03-11T05:27:05;8.00;52.00
15574;DHT22;7888;46.748;8.102;2023-03-11T05:29:31;8.00;52.00
15574;DHT22;7888;46.748;8.102;2023-03-11T05:31:56;7.90;51.90
15574;DHT22;7888;46.748;8.102;2023-03-11T05:34:22;7.90;52.00
15574;DHT22;7888;46.748;8.102;2023-03-11T05:36:48;7.90;52.00
15574;DHT22;7888;46.748;8.102;2023-03-11T05:39:14;7.80;52.00
15574;DHT22;7888;46.748;8.102;2023-03-11T05:41:40;7.80;52.00
15574;DHT22;7888;46.748;8.102;2023-03-11T05:44:06;7.80;52.00
15574;DHT22;7888;46.748;8.102;2023-03-11T05:46:32;7.80;52.00
15574;DHT22;7888;46.748;8.102;2023-03-11T05:48:58;7.80;51.90
15574;DHT22;7888;46.748;8.102;2023-03-11T05:51:24;7.80;52.00
15574;DHT22;7888;46.748;8.102;2023-03-11T05:53:51;7.70;52.00
15574;DHT22;7888;46.748;8.102;2023-03-11T05:56:20;7.70;52.10
15574;DHT22;7888;46.748;8.102;2023-03-11T05:58:47;7.70;52.10
15574;DHT22;7888;46.748;8.102;2023-03-11T06:01:15;7.70;52.10
15574;DHT22;7888;46.748;8.102;2023-03-11T06:03:42;7.70;52.10
15574;DHT22;7888;46.748;8.102;2023-03-11T06:06:10;7.70;52.10
15574;DHT22;7888;46.748;8.102;2023-03-11T06:08:37;7.70;52.20
15574;DHT22;7888;46.748;8.102;2023-03-11T06:11:06;7.70;52.20
15574;DHT22;7888;46.748;8.102;2023-03-11T06:13:33;7.70;52.40
15574;DHT22;7888;46.748;8.102;2023-03-11T06:16:00;7.60;52.20
15574;DHT22;7888;46.748;8.102;2023-03-11T06:18:26;7.70;52.20
15574;DHT22;7888;46.748;8.102;2023-03-11T06:20:53;7.60;52.20
15574;DHT22;7888;46.748;8.102;2023-03-11T06:23:19;7.70;52.30
15574;DHT22;7888;46.748;8.102;2023-03-11T06:25:55;7.60;52.20
15574;DHT22;7888;46.748;8.102;2023-03-11T06:28:30;7.60;52.70
15574;DHT22;7888;46.748;8.102;2023-03-11T06:31:06;7.60;52.30
15574;DHT22;7888;46.748;8.102;2023-03-11T06:33:37;7.50;52.50
15574;DHT22;7888;46.748;8.102;2023-03-11T06:36:05;7.50;52.30
15574;DHT22;7888;46.748;8.102;2023-03-11T06:38:32;7.50;52.30
15574;DHT22;7888;46.748;8.102;2023-03-11T06:41:03;7.40;52.30
15574;DHT22;7888;46.748;8.102;2023-03-11T06:43:31;7.40;52.60
15574;DHT22;7888;46.748;8.102;2023-03-11T06:45:58;7.40;52.50
15574;DHT22;7888;46.748;8.102;2023-03-11T06:48:25;7.40;52.60
15574;DHT22;7888;46.748;8.102;2023-03-11T06:50:57;7.30;52.50
15574;DHT22;7888;46.748;8.102;2023-03-11T06:53:25;7.30;52.80
15574;DHT22;7888;46.748;8.102;2023-03-11T06:56:03;7.30;52.60
15574;DHT22;7888;46.748;8.102;2023-03-11T06:58:35;7.20;52.80
15574;DHT22;7888;46.748;8.102;2023-03-11T07:01:04;7.20;52.60
15574;DHT22;7888;46.748;8.102;2023-03-11T07:03:33;7.20;52.80
15574;DHT22;7888;46.748;8.102;2023-03-11T07:05:59;7.20;52.80
15574;DHT22;7888;46.748;8.102;2023-03-11T07:08:25;7.10;52.90
15574;DHT22;7888;46.748;8.102;2023-03-11T07:11:11;7.10;52.90
15574;DHT22;7888;46.748;8.102;2023-03-11T07:13:39;7.10;53.20
15574;DHT22;7888;46.748;8.102;2023-03-11T07:16:09;7.10;52.80
15574;DHT22;7888;46.748;8.102;2023-03-11T07:18:37;7.10;52.90
15574;DHT22;7888;46.748;8.102;2023-03-11T07:21:05;7.10;52.90
15574;DHT22;7888;46.748;8.102;2023-03-11T07:23:32;7.10;53.00
15574;DHT22;7888;46.748;8.102;2023-03-11T07:25:59;7.20;53.00
15574;DHT22;7888;46.748;8.102;2023-03-11T07:28:26;7.10;53.00
15574;DHT22;7888;46.748;8.102;2023-03-11T07:30:53;7.20;53.10
15574;DHT22;7888;46.748;8.102;2023-03-11T07:33:20;7.20;53.10
15574;DHT22;7888;46.748;8.102;2023-03-11T07:35:48;7.20;53.10
15574;DHT22;7888;46.748;8.102;2023-03-11T07:38:15;7.20;53.10
15574;DHT22;7888;46.748;8.102;2023-03-11T07:40:43;7.20;53.10
15574;DHT22;7888;46.748;8.102;2023-03-11T07:43:09;7.10;53.20
15574;DHT22;7888;46.748;8.102;2023-03-11T07:45:35;7.10;53.00
15574;DHT22;7888;46.748;8.102;2023-03-11T07:48:01;7.10;53.00
15574;DHT22;7888;46.748;8.102;2023-03-11T07:50:28;7.00;53.00
15574;DHT22;7888;46.748;8.102;2023-03-11T07:52:54;7.00;53.00
15574;DHT22;7888;46.748;8.102;2023-03-11T07:55:20;7.00;53.10
15574;DHT22;7888;46.748;8.102;2023-03-11T07:57:47;7.00;53.20
15574;DHT22;7888;46.748;8.102;2023-03-11T08:00:14;7.00;53.30
15574;DHT22;7888;46.748;8.102;2023-03-11T08:02:40;7.00;53.30
15574;DHT22;7888;46.748;8.102;2023-03-11T08:05:07;7.00;53.20
15574;DHT22;7888;46.748;8.102;2023-03-11T08:07:33;7.00;53.20
15574;DHT22;7888;46.748;8.102;2023-03-11T08:09:59;7.00;53.20
15574;DHT22;7888;46.748;8.102;2023-03-11T08:12:25;6.90;53.10
15574;DHT22;7888;46.748;8.102;2023-03-11T08:14:51;6.90;53.20
15574;DHT22;7888;46.748;8.102;2023-03-11T08:17:17;6.90;53.20
15574;DHT22;7888;46.748;8.102;2023-03-11T08:19:43;6.80;53.20
15574;DHT22;7888;46.748;8.102;2023-03-11T08:22:09;6.80;53.30
15574;DHT22;7888;46.748;8.102;2023-03-11T08:24:35;6.80;53.40
15574;DHT22;7888;46.748;8.102;2023-03-11T08:27:01;6.80;53.50
15574;DHT22;7888;46.748;8.102;2023-03-11T08:29:27;6.80;53.50
15574;DHT22;7888;46.748;8.102;2023-03-11T08:31:53;6.80;53.60
15574;DHT22;7888;46.748;8.102;2023-03-11T08:34:19;6.90;53.70
15574;DHT22;7888;46.748;8.102;2023-03-11T08:36:46;6.90;53.70
15574;DHT22;7888;46.748;8.102;2023-03-11T08:39:11;7.00;53.80
15574;DHT22;7888;46.748;8.102;2023-03-11T08:41:38;7.00;53.70
15574;DHT22;7888;46.748;8.102;2023-03-11T08:44:04;7.00;53.60
15574;DHT22;7888;46.748;8.102;2023-03-11T08:46:36;7.10;53.70
15574;DHT22;7888;46.748;8.102;2023-03-11T08:49:03;7.10;53.80
15574;DHT22;7888;46.748;8.102;2023-03-11T08:51:32;7.10;53.60
15574;DHT22;7888;46.748;8.102;2023-03-11T08:53:59;7.20;53.60
15574;DHT22;7888;46.748;8.102;2023-03-11T08:56:26;7.20;53.60
15574;DHT22;7888;46.748;8.102;2023-03-11T08:58:52;7.20;53.70
15574;DHT22;7888;46.748;8.102;2023-03-11T09:01:18;7.30;53.80
15574;DHT22;7888;46.748;8.102;2023-03-11T09:03:44;7.30;53.70
15574;DHT22;7888;46.748;8.102;2023-03-11T09:06:13;7.30;53.70
15574;DHT22;7888;46.748;8.102;2023-03-11T09:08:41;7.40;53.70
15574;DHT22;7888;46.748;8.102;2023-03-11T09:11:08;7.40;53.60
15574;DHT22;7888;46.748;8.102;2023-03-11T09:13:34;7.40;53.60
15574;DHT22;7888;46.748;8.102;2023-03-11T09:16:00;7.40;53.60
15574;DHT22;7888;46.748;8.102;2023-03-11T09:18:26;7.40;53.50
15574;DHT22;7888;46.748;8.102;2023-03-11T09:20:53;7.40;53.40
15574;DHT22;7888;46.748;8.102;2023-03-11T09:23:22;7.40;53.40
15574;DHT22;7888;46.748;8.102;2023-03-11T09:25:48;7.40;53.40
15574;DHT22;7888;46.748;8.102;2023-03-11T09:28:14;7.40;53.40
15574;DHT22;7888;46.748;8.102;2023-03-11T09:30:40;7.40;53.40
15574;DHT22;7888;46.748;8.102;2023-03-11T09:33:06;7.30;53.40
15574;DHT22;7888;46.748;8.102;2023-03-11T09:35:33;7.30;53.40
15574;DHT22;7888;46.748;8.102;2023-03-11T09:37:59;7.30;53.40
15574;DHT22;7888;46.748;8.102;2023-03-11T09:40:27;7.20;53.50
15574;DHT22;7888;46.748;8.102;2023-03-11T09:54:37;7.10;53.90
15574;DHT22;7888;46.748;8.102;2023-03-11T09:57:13;7.20;54.00
15574;DHT22;7888;46.748;8.102;2023-03-11T09:59:44;7.20;54.10
15574;DHT22;7888;46.748;8.102;2023-03-11T10:02:16;7.30;54.10
15574;DHT22;7888;46.748;8.102;2023-03-11T10:05:06;7.30;54.20
15574;DHT22;7888;46.748;8.102;2023-03-11T10:07:46;7.40;54.40
15574;DHT22;7888;46.748;8.102;2023-03-11T10:10:20;7.40;54.10
15574;DHT22;7888;46.748;8.102;2023-03-11T10:16:29;7.60;54.60
15574;DHT22;7888;46.748;8.102;2023-03-11T10:22:10;7.70;53.90
15574;DHT22;7888;46.748;8.102;2023-03-11T10:25:02;7.80;53.60
15574;DHT22;7888;46.748;8.102;2023-03-11T10:27:45;7.90;53.90
15574;DHT22;7888;46.748;8.102;2023-03-11T10:33:11;8.00;53.60
15574;DHT22;7888;46.748;8.102;2023-03-11T10:35:51;8.10;53.70
15574;DHT22;7888;46.748;8.102;2023-03-11T10:38:35;8.20;53.50
15574;DHT22;7888;46.748;8.102;2023-03-11T10:44:05;8.30;53.40
15574;DHT22;7888;46.748;8.102;2023-03-11T10:46:37;8.30;53.40
15574;DHT22;7888;46.748;8.102;2023-03-11T10:49:08;8.40;53.30
15574;DHT22;7888;46.748;8.102;2023-03-11T10:51:40;8.50;53.30
15574;DHT22;7888;46.748;8.102;2023-03-11T10:54:21;8.50;53.10
15574;DHT22;7888;46.748;8.102;2023-03-11T10:57:03;8.50;53.20
15574;DHT22;7888;46.748;8.102;2023-03-11T10:59:45;8.60;53.10
15574;DHT22;7888;46.748;8.102;2023-03-11T11:04:44;8.70;53.50
15574;DHT22;7888;46.748;8.102;2023-03-11T11:07:26;8.70;52.90
15574;DHT22;7888;46.748;8.102;2023-03-11T11:10:15;8.80;53.00
15574;DHT22;7888;46.748;8.102;2023-03-11T11:15:41;8.80;52.70
15574;DHT22;7888;46.748;8.102;2023-03-11T11:18:32;8.90;52.60
15574;DHT22;7888;46.748;8.102;2023-03-11T11:21:12;8.90;52.60
15574;DHT22;7888;46.748;8.102;2023-03-11T11:23:46;8.90;52.50
15574;DHT22;7888;46.748;8.102;2023-03-11T11:26:23;9.00;52.50
15574;DHT22;7888;46.748;8.102;2023-03-11T11:29:17;9.00;52.60
15574;DHT22;7888;46.748;8.102;2023-03-11T11:31:44;9.00;52.50
15574;DHT22;7888;46.748;8.102;2023-03-11T11:36:59;9.10;52.30
15574;DHT22;7888;46.748;8.102;2023-03-11T11:39:31;9.00;52.10
15574;DHT22;7888;46.748;8.102;2023-03-11T11:42:05;9.10;52.80
15574;DHT22;7888;46.748;8.102;2023-03-11T11:44:36;9.10;52.20
15574;DHT22;7888;46.748;8.102;2023-03-11T11:47:21;9.10;52.20
15574;DHT22;7888;46.748;8.102;2023-03-11T11:49:55;9.10;52.30
15574;DHT22;7888;46.748;8.102;2023-03-11T11:52:30;9.10;52.10
15574;DHT22;7888;46.748;8.102;2023-03-11T11:57:51;9.20;52.10
15574;DHT22;7888;46.748;8.102;2023-03-11T12:00:19;9.20;52.00
15574;DHT22;7888;46.748;8.102;2023-03-11T12:06:16;9.20;51.90
15574;DHT22;7888;46.748;8.102;2023-03-11T12:09:01;9.20;51.90
15574;DHT22;7888;46.748;8.102;2023-03-11T12:11:51;9.20;51.90
15574;DHT22;7888;46.748;8.102;2023-03-11T12:17:38;9.20;52.10
15574;DHT22;7888;46.748;8.102;2023-03-11T12:20:36;9.30;52.00
15574;DHT22;7888;46.748;8.102;2023-03-11T12:26:22;9.30;51.90
15574;DHT22;7888;46.748;8.102;2023-03-11T12:29:07;9.20;51.80
15574;DHT22;7888;46.748;8.102;2023-03-11T12:31:40;9.30;51.90
15574;DHT22;7888;46.748;8.102;2023-03-11T12:34:10;9.20;51.90
15574;DHT22;7888;46.748;8.102;2023-03-11T12:36:40;9.20;52.70
15574;DHT22;7888;46.748;8.102;2023-03-11T12:44:42;9.50;52.50
15574;DHT22;7888;46.748;8.102;2023-03-11T12:49:42;9.50;52.10
15574;DHT22;7888;46.748;8.102;2023-03-11T13:05:50;9.60;51.40
15574;DHT22;7888;46.748;8.102;2023-03-11T13:08:47;9.60;51.50
15574;DHT22;7888;46.748;8.102;2023-03-11T13:14:12;9.50;51.50
15574;DHT22;7888;46.748;8.102;2023-03-11T13:17:27;9.50;51.60
15574;DHT22;7888;46.748;8.102;2023-03-11T13:19:58;9.50;51.60
15574;DHT22;7888;46.748;8.102;2023-03-11T13:22:42;9.50;51.60
15574;DHT22;7888;46.748;8.102;2023-03-11T13:25:36;9.50;51.70
15574;DHT22;7888;46.748;8.102;2023-03-11T13:40:39;9.50;51.60
15574;DHT22;7888;46.748;8.102;2023-03-11T13:43:19;9.50;51.60
15574;DHT22;7888;46.748;8.102;2023-03-11T13:46:02;9.50;51.60
15574;DHT22;7888;46.748;8.102;2023-03-11T13:48:45;9.50;51.70
15574;DHT22;7888;46.748;8.102;2023-03-11T13:51:23;9.50;51.70
15574;DHT22;7888;46.748;8.102;2023-03-11T13:54:13;9.50;51.60
15574;DHT22;7888;46.748;8.102;2023-03-11T13:57:29;9.50;51.60
15574;DHT22;7888;46.748;8.102;2023-03-11T14:00:04;9.60;51.90
15574;DHT22;7888;46.748;8.102;2023-03-11T14:03:08;9.60;51.70
15574;DHT22;7888;46.748;8.102;2023-03-11T14:05:42;9.60;51.80
15574;DHT22;7888;46.748;8.102;2023-03-11T14:13:28;9.60;51.70
15574;DHT22;7888;46.748;8.102;2023-03-11T14:18:39;9.60;51.50
15574;DHT22;7888;46.748;8.102;2023-03-11T14:21:19;9.60;51.50
15574;DHT22;7888;46.748;8.102;2023-03-11T14:23:48;9.50;51.50
15574;DHT22;7888;46.748;8.102;2023-03-11T14:26:27;9.50;51.40
15574;DHT22;7888;46.748;8.102;2023-03-11T14:29:01;9.50;51.40
15574;DHT22;7888;46.748;8.102;2023-03-11T14:31:35;9.50;51.40
15574;DHT22;7888;46.748;8.102;2023-03-11T14:34:23;9.40;51.40
15574;DHT22;7888;46.748;8.102;2023-03-11T14:36:56;9.40;51.50
15574;DHT22;7888;46.748;8.102;2023-03-11T14:39:32;9.40;51.40
15574;DHT22;7888;46.748;8.102;2023-03-11T14:45:15;9.30;51.40
15574;DHT22;7888;46.748;8.102;2023-03-11T14:47:57;9.30;51.50
15574;DHT22;7888;46.748;8.102;2023-03-11T14:50:34;9.30;51.50
15574;DHT22;7888;46.748;8.102;2023-03-11T14:55:55;9.10;51.30
15574;DHT22;7888;46.748;8.102;2023-03-11T15:01:20;9.00;51.20
15574;DHT22;7888;46.748;8.102;2023-03-11T15:03:52;8.90;51.30
15574;DHT22;7888;46.748;8.102;2023-03-11T15:06:28;8.80;51.30
15574;DHT22;7888;46.748;8.102;2023-03-11T15:09:15;8.80;51.40
15574;DHT22;7888;46.748;8.102;2023-03-11T15:11:54;8.70;51.40
15574;DHT22;7888;46.748;8.102;2023-03-11T15:14:36;8.70;51.50
15574;DHT22;7888;46.748;8.102;2023-03-11T15:17:26;8.70;51.80
15574;DHT22;7888;46.748;8.102;2023-03-11T15:19:56;8.60;51.70
15574;DHT22;7888;46.748;8.102;2023-03-11T15:22:34;8.60;51.80
15574;DHT22;7888;46.748;8.102;2023-03-11T15:25:16;8.60;51.90
15574;DHT22;7888;46.748;8.102;2023-03-11T15:27:43;8.50;51.90
15574;DHT22;7888;46.748;8.102;2023-03-11T15:30:21;8.50;51.80
15574;DHT22;7888;46.748;8.102;2023-03-11T15:32:52;8.50;51.90
15574;DHT22;7888;46.748;8.102;2023-03-11T15:35:29;8.50;51.90
15574;DHT22;7888;46.748;8.102;2023-03-11T15:38:30;8.50;52.10
15574;DHT22;7888;46.748;8.102;2023-03-11T15:40:58;8.40;52.10
15574;DHT22;7888;46.748;8.102;2023-03-11T15:43:31;8.40;51.90
15574;DHT22;7888;46.748;8.102;2023-03-11T15:46:01;8.40;52.10
15574;DHT22;7888;46.748;8.102;2023-03-11T15:48:28;8.40;52.70
15574;DHT22;7888;46.748;8.102;2023-03-11T15:50:59;8.40;52.10
15574;DHT22;7888;46.748;8.102;2023-03-11T15:53:27;8.40;52.20
15574;DHT22;7888;46.748;8.102;2023-03-11T15:55:57;8.40;52.20
15574;DHT22;7888;46.748;8.102;2023-03-11T15:58:26;8.40;52.30
15574;DHT22;7888;46.748;8.102;2023-03-11T16:00:55;8.30;52.10
15574;DHT22;7888;46.748;8.102;2023-03-11T16:03:22;8.40;52.20
15574;DHT22;7888;46.748;8.102;2023-03-11T16:05:49;8.30;52.10
15574;DHT22;7888;46.748;8.102;2023-03-11T16:08:15;8.30;52.20
15574;DHT22;7888;46.748;8.102;2023-03-11T16:10:41;8.30;52.10
15574;DHT22;7888;46.748;8.102;2023-03-11T16:13:11;8.30;52.10
15574;DHT22;7888;46.748;8.102;2023-03-11T16:15:38;8.30;52.30
15574;DHT22;7888;46.748;8.102;2023-03-11T16:18:05;8.20;52.20
15574;DHT22;7888;46.748;8.102;2023-03-11T16:20:46;8.20;52.30
15574;DHT22;7888;46.748;8.102;2023-03-11T16:23:25;8.20;52.30
15574;DHT22;7888;46.748;8.102;2023-03-11T16:25:58;8.20;52.40
15574;DHT22;7888;46.748;8.102;2023-03-11T16:28:26;8.10;52.30
15574;DHT22;7888;46.748;8.102;2023-03-11T16:30:52;8.10;52.30
15574;DHT22;7888;46.748;8.102;2023-03-11T16:33:18;8.10;52.30
15574;DHT22;7888;46.748;8.102;2023-03-11T16:35:45;8.10;52.30
15574;DHT22;7888;46.748;8.102;2023-03-11T16:38:11;8.00;52.30
15574;DHT22;7888;46.748;8.102;2023-03-11T16:40:38;8.00;52.40
15574;DHT22;7888;46.748;8.102;2023-03-11T16:43:09;8.00;52.40
15574;DHT22;7888;46.748;8.102;2023-03-11T16:45:38;8.00;52.60
15574;DHT22;7888;46.748;8.102;2023-03-11T16:48:04;7.90;52.40
15574;DHT22;7888;46.748;8.102;2023-03-11T16:50:31;7.90;52.40
15574;DHT22;7888;46.748;8.102;2023-03-11T16:52:58;7.90;52.60
15574;DHT22;7888;46.748;8.102;2023-03-11T16:55:25;7.90;52.70
15574;DHT22;7888;46.748;8.102;2023-03-11T16:57:52;7.90;52.60
15574;DHT22;7888;46.748;8.102;2023-03-11T17:00:19;7.90;52.50
15574;DHT22;7888;46.748;8.102;2023-03-11T17:02:45;7.90;52.60
15574;DHT22;7888;46.748;8.102;2023-03-11T17:05:11;7.80;52.50
15574;DHT22;7888;46.748;8.102;2023-03-11T17:07:38;7.80;52.60
15574;DHT22;7888;46.748;8.102;2023-03-11T17:10:05;7.80;52.70
15574;DHT22;7888;46.748;8.102;2023-03-11T17:12:32;7.80;52.70
15574;DHT22;7888;46.748;8.102;2023-03-11T17:14:59;7.80;52.80
15574;DHT22;7888;46.748;8.102;2023-03-11T17:17:25;7.70;53.40
15574;DHT22;7888;46.748;8.102;2023-03-11T17:19:51;7.70;52.80
15574;DHT22;7888;46.748;8.102;2023-03-11T17:22:17;7.70;52.80
15574;DHT22;7888;46.748;8.102;2023-03-11T17:24:43;7.70;52.90
15574;DHT22;7888;46.748;8.102;2023-03-11T17:27:09;7.70;52.90
15574;DHT22;7888;46.748;8.102;2023-03-11T17:29:34;7.70;52.90
15574;DHT22;7888;46.748;8.102;2023-03-11T17:32:01;7.60;52.90
15574;DHT22;7888;46.748;8.102;2023-03-11T17:34:27;7.60;53.00
15574;DHT22;7888;46.748;8.102;2023-03-11T17:36:53;7.60;53.00
15574;DHT22;7888;46.748;8.102;2023-03-11T17:39:20;7.50;53.00
15574;DHT22;7888;46.748;8.102;2023-03-11T17:41:46;7.50;53.00
15574;DHT22;7888;46.748;8.102;2023-03-11T17:44:12;7.50;52.90
15574;DHT22;7888;46.748;8.102;2023-03-11T17:46:38;7.40;52.90
15574;DHT22;7888;46.748;8.102;2023-03-11T17:49:06;7.40;53.60
15574;DHT22;7888;46.748;8.102;2023-03-11T17:51:33;7.30;53.00
15574;DHT22;7888;46.748;8.102;2023-03-11T17:53:59;7.20;53.10
15574;DHT22;7888;46.748;8.102;2023-03-11T17:56:26;7.20;53.20
15574;DHT22;7888;46.748;8.102;2023-03-11T17:58:52;7.10;53.20
15574;DHT22;7888;46.748;8.102;2023-03-11T20:19:41;6.70;54.60
15574;DHT22;7888;46.748;8.102;2023-03-11T20:22:07;6.70;54.20
15574;DHT22;7888;46.748;8.102;2023-03-11T20:24:34;6.70;54.30
15574;DHT22;7888;46.748;8.102;2023-03-11T20:27:00;6.70;54.50